»·PEaware :: N123YB KSAN-KNYL

N123YB :: KSAN-KNYL

FLIGHT INFORMATION

Flight Status: Arrived
Operator: Privately registered:
United States
More flights under this callsign
Pilot: Yonel B. (11973)
Aircraft: CESSNA 172 SKYHAWK
(C172)
More flights by this aircraft type
Origin: KSAN San Diego Intl-Lindbergh
United States
Destination: KNYL Yuma MCAS/Yuma Intl
United States
More flights between these airports :: More routes between these airports
Route: +PGY V317 IPL
File this flight plan on PilotEdge
Remarks: IFR PRACTICE
Altitude:
(Current/Filed)
9,000ft
Speed:
(Current/Filed)
110kts
Departed: 09-Jan-18 01:48 PM
Arrived: 09-Jan-18 03:17 PM
Distance/Time
Traveled:
130nm/1:28
Distance/Time
To Go:
Arrived

Flight Plot

Page will automatically refresh every two minutes.

Flight plan parsing failed; only flown route is shown


Map Options




Map Legend


Flown Route
Filed Route
Departure Airport
Arrival Airport
Navaid (VOR, NDB)
Fix

Horizontal Profiles

Position Reports

Time Latitude Longitude Heading Altitude Ground
Speed
09-Jan-18 13:29 32.732428 -117.176644 194 21ft 0kts
09-Jan-18 13:30 32.732428 -117.176644 194 21ft 0kts
09-Jan-18 13:31 32.732428 -117.176644 194 21ft 0kts
09-Jan-18 13:32 32.732428 -117.176644 194 21ft 0kts
09-Jan-18 13:33 32.732428 -117.176644 194 21ft 0kts
09-Jan-18 13:34 32.732428 -117.176644 194 21ft 0kts
09-Jan-18 13:35 32.732428 -117.176644 194 21ft 0kts
09-Jan-18 13:36 32.732428 -117.176644 194 21ft 0kts
09-Jan-18 13:37 32.732428 -117.176644 194 21ft 0kts
09-Jan-18 13:38 32.732428 -117.176644 194 21ft 0kts
09-Jan-18 13:39 32.732428 -117.176644 194 21ft 0kts
09-Jan-18 13:40 32.732428 -117.176644 194 21ft 0kts
09-Jan-18 13:41 32.732428 -117.176644 194 21ft 0kts
09-Jan-18 13:42 32.732428 -117.176644 194 21ft 0kts
09-Jan-18 13:43 32.732428 -117.176644 194 21ft 0kts
09-Jan-18 13:44 32.732425 -117.176645 198 21ft 0kts
09-Jan-18 13:45 32.731838 -117.176802 215 21ft 0kts
09-Jan-18 13:46 32.731730 -117.177381 284 21ft 4kts
09-Jan-18 13:47 32.732232 -117.179403 282 21ft 7kts
09-Jan-18 13:48 32.732500 -117.180831 129 21ft 2kts
09-Jan-18 13:49 32.731725 -117.177401 112 21ft 10kts
09-Jan-18 13:50 32.731136 -117.175753 134 21ft 0kts
09-Jan-18 13:51 32.731136 -117.175753 134 21ft 0kts
09-Jan-18 13:52 32.731136 -117.175753 134 21ft 0kts
09-Jan-18 13:53 32.730218 -117.175929 275 21ft 6kts
09-Jan-18 13:54 32.737131 -117.190658 277 711ft 63kts
09-Jan-18 13:55 32.742221 -117.214029 271 1658ft 83kts
09-Jan-18 13:56 32.747045 -117.243658 280 2483ft 93kts
09-Jan-18 13:57 32.753441 -117.274144 273 3237ft 95kts
09-Jan-18 13:58 32.759878 -117.304704 277 3964ft 95kts
09-Jan-18 13:59 32.763583 -117.335346 266 4639ft 92kts
09-Jan-18 14:00 32.759773 -117.364122 219 5218ft 92kts
09-Jan-18 14:01 32.739458 -117.346726 121 5770ft 115kts
09-Jan-18 14:02 32.724723 -117.312041 128 6283ft 117kts
09-Jan-18 14:03 32.711796 -117.275678 117 6761ft 122kts
09-Jan-18 14:04 32.701428 -117.236771 125 7219ft 122kts
09-Jan-18 14:05 32.687513 -117.199687 119 7677ft 124kts
09-Jan-18 14:06 32.674935 -117.160946 122 8084ft 125kts
09-Jan-18 14:07 32.661164 -117.123194 112 8539ft 125kts
09-Jan-18 14:08 32.648501 -117.084267 124 8911ft 126kts
09-Jan-18 14:09 32.634919 -117.045177 123 9076ft 129kts
09-Jan-18 14:10 32.620066 -117.005580 128 9013ft 131kts
09-Jan-18 14:11 32.609309 -116.963497 104 8967ft 141kts
09-Jan-18 14:12 32.619791 -116.916971 86 8982ft 143kts
09-Jan-18 14:13 32.623203 -116.871262 102 9069ft 138kts
09-Jan-18 14:14 32.630140 -116.824052 88 9003ft 148kts
09-Jan-18 14:15 32.636835 -116.776903 89 9019ft 146kts
09-Jan-18 14:16 32.639599 -116.730646 104 9040ft 138kts
09-Jan-18 14:17 32.642105 -116.684836 96 9056ft 141kts
09-Jan-18 14:18 32.645123 -116.638873 93 9054ft 141kts
09-Jan-18 14:19 32.648094 -116.592896 96 9053ft 141kts
09-Jan-18 14:20 32.652645 -116.546564 96 9068ft 141kts
09-Jan-18 14:21 32.657528 -116.500079 98 9088ft 141kts
09-Jan-18 14:22 32.662177 -116.453144 96 9034ft 143kts
09-Jan-18 14:23 32.666632 -116.406384 98 9008ft 141kts
09-Jan-18 14:24 32.670650 -116.359409 97 8958ft 144kts
09-Jan-18 14:25 32.675233 -116.312074 98 8971ft 143kts
09-Jan-18 14:26 32.679835 -116.263978 94 8981ft 147kts
09-Jan-18 14:27 32.684689 -116.214897 91 8978ft 152kts
09-Jan-18 14:28 32.689461 -116.164756 97 8982ft 152kts
09-Jan-18 14:29 32.693143 -116.114499 79 9021ft 156kts
09-Jan-18 14:30 32.701451 -116.064537 88 9089ft 154kts
09-Jan-18 14:31 32.703789 -116.013753 94 9079ft 154kts
09-Jan-18 14:32 32.708407 -115.962518 93 9049ft 154kts
09-Jan-18 14:33 32.714026 -115.911060 93 8999ft 157kts
09-Jan-18 14:34 32.718811 -115.860286 97 9013ft 150kts
09-Jan-18 14:35 32.724281 -115.809777 86 8941ft 158kts
09-Jan-18 14:36 32.730328 -115.759517 104 8937ft 150kts
09-Jan-18 14:37 32.730745 -115.710299 97 9006ft 150kts
09-Jan-18 14:38 32.733500 -115.661348 103 9074ft 147kts
09-Jan-18 14:39 32.739975 -115.611425 87 9097ft 155kts
09-Jan-18 14:40 32.745282 -115.560090 89 8939ft 160kts
09-Jan-18 14:41 32.747203 -115.508422 103 8836ft 153kts
09-Jan-18 14:42 32.751414 -115.458714 96 8944ft 152kts
09-Jan-18 14:43 32.751977 -115.409945 95 9093ft 150kts
09-Jan-18 14:44 32.752293 -115.360229 98 9117ft 152kts
09-Jan-18 14:45 32.753464 -115.308886 97 9047ft 154kts
09-Jan-18 14:46 32.750378 -115.258070 104 8998ft 153kts
09-Jan-18 14:47 32.751002 -115.207238 72 8951ft 158kts
09-Jan-18 14:48 32.757438 -115.156450 92 8987ft 152kts
09-Jan-18 14:49 32.757439 -115.106565 92 9017ft 150kts
09-Jan-18 14:50 32.755131 -115.057824 100 9054ft 146kts
09-Jan-18 14:51 32.751846 -115.010125 101 9088ft 143kts
09-Jan-18 14:52 32.761210 -114.964050 76 9090ft 146kts
09-Jan-18 14:53 32.760483 -114.917501 98 9106ft 142kts
09-Jan-18 14:54 32.763264 -114.869915 92 9012ft 145kts
09-Jan-18 14:55 32.764048 -114.821800 95 8675ft 146kts
09-Jan-18 14:56 32.765082 -114.772940 95 8109ft 147kts
09-Jan-18 14:57 32.765532 -114.723952 91 7518ft 149kts
09-Jan-18 14:58 32.765307 -114.674291 100 6862ft 150kts
09-Jan-18 14:59 32.758535 -114.625929 107 6242ft 148kts
09-Jan-18 15:00 32.769398 -114.582821 38 5654ft 136kts
09-Jan-18 15:01 32.790625 -114.553728 42 5196ft 136kts
09-Jan-18 15:02 32.814726 -114.517946 34 4799ft 135kts
09-Jan-18 15:03 32.840882 -114.487153 38 4974ft 122kts
09-Jan-18 15:04 32.869756 -114.452489 26 5239ft 130kts
09-Jan-18 15:05 32.891804 -114.426752 63 5178ft 149kts
09-Jan-18 15:06 32.879596 -114.384835 154 5231ft 135kts
09-Jan-18 15:07 32.847551 -114.383045 183 5081ft 122kts
09-Jan-18 15:08 32.827775 -114.399468 273 4493ft 91kts
09-Jan-18 15:09 32.817740 -114.427648 241 3935ft 94kts
09-Jan-18 15:10 32.793153 -114.444558 248 3568ft 102kts
09-Jan-18 15:11 32.780915 -114.472055 242 3412ft 102kts
09-Jan-18 15:12 32.756245 -114.490122 208 2981ft 117kts
09-Jan-18 15:13 32.736744 -114.511470 277 2085ft 90kts
09-Jan-18 15:14 32.722204 -114.535815 203 2005ft 110kts
09-Jan-18 15:15 32.698958 -114.555507 260 1604ft 89kts
09-Jan-18 15:16 32.691158 -114.584781 251 1591ft 95kts
09-Jan-18 15:17 32.670966 -114.608110 204 1402ft 117kts
09-Jan-18 15:18 32.646307 -114.587639 79 1541ft 144kts
09-Jan-18 15:19 32.668801 -114.579784 349 2054ft 69kts
09-Jan-18 15:20 32.677905 -114.555402 138 2062ft 122kts
09-Jan-18 15:21 32.665822 -114.565819 285 1611ft 57kts
09-Jan-18 15:22 32.665921 -114.583660 278 307ft 48kts
09-Jan-18 15:23 32.666105 -114.589912 277 216ft 15kts
09-Jan-18 15:24 32.666081 -114.594379 276 216ft 6kts
09-Jan-18 15:25 32.666103 -114.597366 263 216ft 9kts
09-Jan-18 15:26 32.665997 -114.599473 282 216ft 6kts
09-Jan-18 15:27 32.665953 -114.602481 276 216ft 10kts
09-Jan-18 15:28 32.665808 -114.605161 228 216ft 9kts
09-Jan-18 15:29 32.665069 -114.605574 206 216ft 0kts
09-Jan-18 15:30 32.663899 -114.605569 180 216ft 5kts
09-Jan-18 15:31 32.663614 -114.606358 277 216ft 0kts
09-Jan-18 15:32 32.662922 -114.606813 122 216ft 0kts

Navigation Log

Ident Type
Flight plan parsing failed, navigation log unavailable